THY4KY SBGR-LTFM
Flight info
| Callsign | THY4KY |
|---|---|
| Flight time | N/A |
| Altitude | 31000 |
| Route | UREMI UZ42 CXI UL340 VUPIP UL206 BUGAT/N0474F330 UL206 KODOS DCT 05N024W DCT TURUP/N0466F350 UA302 ANITI UR975 ARDAR UA854 BRENA UN854 TIO/N0450F370 UN854 GHA UG864 TBS UR783 BASMO/N0446F380 DCT ARFOL DCT DINOB/N0444F370 DCT PEREN UN644 DIGTI UT162 DRAMO |
| Aircraft | B763/H-SDE3FGHIM3RWXY/LB1 |
Departure
| Time | N/A |
|---|---|
| Airport | São Paulo/Guarulhos–Governor André Franco Montoro International Airport (SBGR) |
Arrival
| Time | 2026-05-06 09:50 |
|---|---|
| Airport | İstanbul Airport (LTFM) |
| Time | Latitude | Longitude | Altitude | Speed | Heading |
|---|---|---|---|---|---|
| 2026-05-06 09:20 | 40.94793 | 25.75880 | 28318 ft | 427 kts | 86° |
| 2026-05-06 09:21 | 40.94780 | 25.79770 | 28038 ft | 422 kts | 86° |
| 2026-05-06 09:21 | 40.94748 | 25.83644 | 27781 ft | 427 kts | 86° |
| 2026-05-06 09:21 | 40.94703 | 25.87585 | 27521 ft | 432 kts | 86° |
| 2026-05-06 09:21 | 40.94648 | 25.91584 | 27249 ft | 431 kts | 87° |
| 2026-05-06 09:22 | 40.94590 | 25.95507 | 26976 ft | 426 kts | 87° |
| 2026-05-06 09:22 | 40.94529 | 25.99410 | 26768 ft | 421 kts | 86° |
| 2026-05-06 09:22 | 40.94469 | 26.03254 | 26690 ft | 420 kts | 86° |
| 2026-05-06 09:22 | 40.94407 | 26.07127 | 26663 ft | 422 kts | 87° |
| 2026-05-06 09:23 | 40.94342 | 26.11035 | 26636 ft | 424 kts | 87° |
| 2026-05-06 09:23 | 40.94277 | 26.14932 | 26606 ft | 424 kts | 87° |
| 2026-05-06 09:23 | 40.94209 | 26.18797 | 26575 ft | 423 kts | 87° |
| 2026-05-06 09:23 | 40.94141 | 26.22678 | 26543 ft | 423 kts | 87° |
| 2026-05-06 09:24 | 40.94070 | 26.26603 | 26515 ft | 423 kts | 87° |
| 2026-05-06 09:24 | 40.94000 | 26.30469 | 26486 ft | 423 kts | 87° |
| 2026-05-06 09:24 | 40.93927 | 26.34353 | 26455 ft | 422 kts | 86° |
| 2026-05-06 09:24 | 40.93854 | 26.38192 | 26427 ft | 422 kts | 87° |
| 2026-05-06 09:25 | 40.93779 | 26.42075 | 26398 ft | 421 kts | 86° |
| 2026-05-06 09:25 | 40.93703 | 26.45948 | 26370 ft | 421 kts | 86° |
| 2026-05-06 09:25 | 40.93626 | 26.49801 | 26341 ft | 421 kts | 86° |
| 2026-05-06 09:25 | 40.93547 | 26.53721 | 26312 ft | 421 kts | 86° |
| 2026-05-06 09:26 | 40.93467 | 26.57560 | 26284 ft | 421 kts | 86° |
| 2026-05-06 09:26 | 40.93386 | 26.61431 | 26258 ft | 420 kts | 87° |
| 2026-05-06 09:26 | 40.93304 | 26.65287 | 26229 ft | 420 kts | 87° |
| 2026-05-06 09:26 | 40.93220 | 26.69140 | 26196 ft | 420 kts | 87° |
| 2026-05-06 09:27 | 40.93137 | 26.72986 | 25942 ft | 425 kts | 87° |
| 2026-05-06 09:27 | 40.93050 | 26.76892 | 25425 ft | 426 kts | 87° |
| 2026-05-06 09:27 | 40.92960 | 26.80817 | 24902 ft | 422 kts | 87° |
| 2026-05-06 09:27 | 40.92872 | 26.84622 | 24394 ft | 419 kts | 88° |
| 2026-05-06 09:28 | 40.92782 | 26.88463 | 23897 ft | 415 kts | 87° |
| 2026-05-06 09:28 | 40.92693 | 26.92231 | 23415 ft | 411 kts | 87° |
| 2026-05-06 09:28 | 40.92603 | 26.95983 | 22963 ft | 407 kts | 87° |
| 2026-05-06 09:28 | 40.92513 | 26.99689 | 22528 ft | 402 kts | 88° |
| 2026-05-06 09:29 | 40.92422 | 27.03361 | 22097 ft | 398 kts | 87° |
| 2026-05-06 09:29 | 40.92331 | 27.07009 | 21691 ft | 393 kts | 88° |
| 2026-05-06 09:29 | 40.92241 | 27.10571 | 21292 ft | 388 kts | 87° |
| 2026-05-06 09:29 | 40.92151 | 27.14111 | 20874 ft | 384 kts | 88° |
| 2026-05-06 09:30 | 40.92060 | 27.17609 | 20465 ft | 379 kts | 87° |
| 2026-05-06 09:30 | 40.91970 | 27.21061 | 20085 ft | 375 kts | 87° |
| 2026-05-06 09:30 | 40.91880 | 27.24496 | 19706 ft | 374 kts | 88° |
| 2026-05-06 09:30 | 40.91788 | 27.27945 | 19333 ft | 374 kts | 88° |
| 2026-05-06 09:31 | 40.91695 | 27.31385 | 18945 ft | 372 kts | 88° |
| 2026-05-06 09:31 | 40.91603 | 27.34734 | 18574 ft | 368 kts | 88° |
| 2026-05-06 09:31 | 40.91509 | 27.38118 | 18227 ft | 365 kts | 88° |
| 2026-05-06 09:31 | 40.91415 | 27.41460 | 17862 ft | 363 kts | 88° |
| 2026-05-06 09:32 | 40.91322 | 27.44755 | 17503 ft | 361 kts | 88° |
| 2026-05-06 09:32 | 40.91228 | 27.48069 | 17159 ft | 359 kts | 88° |
| 2026-05-06 09:32 | 40.91133 | 27.51358 | 16799 ft | 357 kts | 87° |
| 2026-05-06 09:32 | 40.91038 | 27.54617 | 16453 ft | 354 kts | 87° |
| 2026-05-06 09:33 | 40.90943 | 27.57880 | 16091 ft | 352 kts | 87° |
| 2026-05-06 09:33 | 40.90851 | 27.61101 | 15748 ft | 349 kts | 86° |
| 2026-05-06 09:33 | 40.90805 | 27.64270 | 15384 ft | 346 kts | 86° |
| 2026-05-06 09:33 | 40.90758 | 27.67429 | 15053 ft | 344 kts | 87° |
| 2026-05-06 09:34 | 40.90711 | 27.70567 | 14726 ft | 342 kts | 87° |
| 2026-05-06 09:34 | 40.90663 | 27.73715 | 14373 ft | 340 kts | 87° |
| 2026-05-06 09:34 | 40.90614 | 27.76797 | 14066 ft | 338 kts | 87° |
| 2026-05-06 09:34 | 40.90566 | 27.79900 | 13734 ft | 336 kts | 87° |
| 2026-05-06 09:35 | 40.90515 | 27.82986 | 13404 ft | 334 kts | 87° |
| 2026-05-06 09:35 | 40.90465 | 27.86034 | 13074 ft | 332 kts | 87° |
| 2026-05-06 09:35 | 40.90414 | 27.89078 | 12761 ft | 331 kts | 87° |
| 2026-05-06 09:35 | 40.90362 | 27.92094 | 12458 ft | 329 kts | 86° |
| 2026-05-06 09:36 | 40.90310 | 27.95086 | 12155 ft | 326 kts | 86° |
| 2026-05-06 09:36 | 40.90257 | 27.98099 | 11818 ft | 323 kts | 86° |
| 2026-05-06 09:36 | 40.90205 | 28.01043 | 11515 ft | 321 kts | 86° |
| 2026-05-06 09:36 | 40.90152 | 28.03972 | 11196 ft | 320 kts | 86° |
| 2026-05-06 09:37 | 40.90098 | 28.06893 | 11061 ft | 314 kts | 86° |
| 2026-05-06 09:37 | 40.90045 | 28.09790 | 11056 ft | 318 kts | 86° |
| 2026-05-06 09:37 | 40.89992 | 28.12766 | 10672 ft | 329 kts | 87° |
| 2026-05-06 09:37 | 40.89933 | 28.15793 | 10215 ft | 327 kts | 87° |
| 2026-05-06 09:38 | 40.89875 | 28.18761 | 9751 ft | 325 kts | 87° |
| 2026-05-06 09:38 | 40.89816 | 28.21731 | 9275 ft | 323 kts | 87° |
| 2026-05-06 09:38 | 40.89757 | 28.24700 | 8822 ft | 321 kts | 87° |
| 2026-05-06 09:38 | 40.89698 | 28.27618 | 8420 ft | 317 kts | 87° |
| 2026-05-06 09:39 | 40.89639 | 28.30473 | 8075 ft | 311 kts | 87° |
| 2026-05-06 09:39 | 40.89581 | 28.33293 | 7785 ft | 305 kts | 87° |
| 2026-05-06 09:39 | 40.89522 | 28.36074 | 7553 ft | 296 kts | 87° |
| 2026-05-06 09:39 | 40.89465 | 28.38727 | 7403 ft | 286 kts | 87° |
| 2026-05-06 09:40 | 40.89410 | 28.41321 | 7313 ft | 275 kts | 87° |
| 2026-05-06 09:40 | 40.89355 | 28.43801 | 7239 ft | 265 kts | 86° |
| 2026-05-06 09:40 | 40.89254 | 28.48621 | 7055 ft | 267 kts | 86° |
| 2026-05-06 09:41 | 40.89200 | 28.51094 | 6880 ft | 269 kts | 86° |
| 2026-05-06 09:41 | 40.89145 | 28.53538 | 6688 ft | 267 kts | 87° |
| 2026-05-06 09:41 | 40.89088 | 28.56013 | 6431 ft | 266 kts | 87° |
| 2026-05-06 09:41 | 40.89138 | 28.58400 | 6204 ft | 259 kts | 73° |
| 2026-05-06 09:42 | 40.89663 | 28.60655 | 5965 ft | 258 kts | 67° |
| 2026-05-06 09:42 | 40.90226 | 28.62901 | 5690 ft | 260 kts | 68° |
| 2026-05-06 09:42 | 40.90786 | 28.65121 | 5424 ft | 258 kts | 68° |
| 2026-05-06 09:42 | 40.91389 | 28.67410 | 5156 ft | 255 kts | 63° |
| 2026-05-06 09:43 | 40.92450 | 28.69217 | 5018 ft | 242 kts | 33° |
| 2026-05-06 09:43 | 40.93827 | 28.70357 | 5000 ft | 230 kts | 29° |
| 2026-05-06 09:43 | 40.95177 | 28.71429 | 4961 ft | 220 kts | 28° |
| 2026-05-06 09:43 | 40.96465 | 28.72444 | 4966 ft | 207 kts | 29° |
| 2026-05-06 09:44 | 40.97757 | 28.73175 | 4949 ft | 198 kts | 5° |
| 2026-05-06 09:44 | 40.99126 | 28.73200 | 4955 ft | 197 kts | 359° |
| 2026-05-06 09:44 | 41.00499 | 28.73205 | 4924 ft | 197 kts | 359° |
| 2026-05-06 09:44 | 41.01872 | 28.73206 | 4894 ft | 197 kts | 359° |
| 2026-05-06 09:45 | 41.03246 | 28.73199 | 4777 ft | 198 kts | 359° |
| 2026-05-06 09:45 | 41.04615 | 28.73186 | 4555 ft | 189 kts | 359° |
| 2026-05-06 09:45 | 41.05916 | 28.73170 | 4299 ft | 189 kts | 358° |
| 2026-05-06 09:45 | 41.07217 | 28.73151 | 4037 ft | 183 kts | 358° |
| 2026-05-06 09:46 | 41.08501 | 28.73130 | 3791 ft | 183 kts | 358° |
| 2026-05-06 09:46 | 41.09776 | 28.73107 | 3549 ft | 184 kts | 358° |
| 2026-05-06 09:46 | 41.11064 | 28.73083 | 3308 ft | 184 kts | 358° |
| 2026-05-06 09:46 | 41.12338 | 28.73059 | 3055 ft | 180 kts | 358° |
| 2026-05-06 09:47 | 41.13539 | 28.73035 | 2830 ft | 169 kts | 359° |
| 2026-05-06 09:47 | 41.14728 | 28.73011 | 2604 ft | 169 kts | 359° |
| 2026-05-06 09:47 | 41.15861 | 28.72989 | 2355 ft | 156 kts | 359° |
| 2026-05-06 09:47 | 41.16890 | 28.72968 | 2159 ft | 140 kts | 359° |
| 2026-05-06 09:48 | 41.17870 | 28.72949 | 1973 ft | 142 kts | 359° |
| 2026-05-06 09:48 | 41.18870 | 28.72928 | 1797 ft | 145 kts | 359° |
| 2026-05-06 09:48 | 41.19868 | 28.72907 | 1602 ft | 144 kts | 359° |
| 2026-05-06 09:48 | 41.20870 | 28.72886 | 1409 ft | 143 kts | 0° |
| 2026-05-06 09:49 | 41.21874 | 28.72865 | 1218 ft | 143 kts | 0° |
| 2026-05-06 09:49 | 41.22854 | 28.72844 | 1028 ft | 142 kts | 1° |
| 2026-05-06 09:49 | 41.23855 | 28.72822 | 840 ft | 146 kts | 0° |
| 2026-05-06 09:49 | 41.24874 | 28.72793 | 633 ft | 146 kts | 1° |
| 2026-05-06 09:50 | 41.25899 | 28.72779 | 436 ft | 145 kts | 1° |
| 2026-05-06 09:50 | 41.26889 | 28.72760 | 337 ft | 136 kts | 1° |
| 2026-05-06 09:50 | 41.27618 | 28.72750 | 336 ft | 54 kts | 359° |
| 2026-05-06 09:50 | 41.27845 | 28.72750 | 336 ft | 13 kts | 3° |
| 2026-05-06 09:51 | 41.27969 | 28.72782 | 336 ft | 22 kts | 19° |
| 2026-05-06 09:51 | 41.28104 | 28.72870 | 336 ft | 20 kts | 29° |
| 2026-05-06 09:51 | 41.28159 | 28.72920 | 336 ft | 3 kts | 70° |
| 2026-05-06 09:51 | 41.28121 | 28.72963 | 336 ft | 13 kts | 166° |
| 2026-05-06 09:52 | 41.28006 | 28.72967 | 336 ft | 16 kts | 180° |
| 2026-05-06 09:52 | 41.27880 | 28.72968 | 336 ft | 19 kts | 179° |
| 2026-05-06 09:52 | 41.27770 | 28.72972 | 336 ft | 15 kts | 178° |
| 2026-05-06 09:52 | 41.27652 | 28.72977 | 336 ft | 17 kts | 178° |
| 2026-05-06 09:53 | 41.27520 | 28.72980 | 336 ft | 19 kts | 179° |
| 2026-05-06 09:53 | 41.27376 | 28.72984 | 336 ft | 21 kts | 179° |
| 2026-05-06 09:53 | 41.27221 | 28.72984 | 336 ft | 23 kts | 180° |
| 2026-05-06 09:53 | 41.27064 | 28.72986 | 336 ft | 17 kts | 179° |
| 2026-05-06 09:54 | 41.26933 | 28.72989 | 336 ft | 19 kts | 179° |
| 2026-05-06 09:54 | 41.26870 | 28.73003 | 336 ft | 7 kts | 144° |
| 2026-05-06 09:54 | 41.26856 | 28.73090 | 336 ft | 13 kts | 90° |
| 2026-05-06 09:54 | 41.26857 | 28.73241 | 336 ft | 18 kts | 89° |
| 2026-05-06 09:55 | 41.26859 | 28.73387 | 336 ft | 13 kts | 89° |
| 2026-05-06 09:55 | 41.26858 | 28.73500 | 336 ft | 9 kts | 104° |
| 2026-05-06 09:55 | 41.26822 | 28.73533 | 336 ft | 6 kts | 166° |
| 2026-05-06 09:55 | 41.26786 | 28.73534 | 336 ft | 4 kts | 181° |
| 2026-05-06 09:56 | 41.26766 | 28.73534 | 336 ft | 0 kts | 180° |